Pagrindinis puslapis
METAR-TAF:

METAR-TAF

Oro uostai :

Yasuj, Iranas

platuma: 30-41-49N, ilguma: 051-33E, Aukštis: 1825 m

Dabartinis oras

Ataskaita buvo paskelbta 23 minutes, ne 11:00 UTC
Ramus vėjas
Temperatūra 25°C
Drėgmė 11%
Slėgis 1026 hPa
Matomumas 10 km arba daugiau
Su prošvaistėmis ne aukštis 4000 ft
Išsisklaidę debesys ne aukštis 9000 ft

METAR: OISY 141100Z 00000KT 9999 BKN040 SCT090 25/M07 Q1026

Laikas: 14:53 (11:23 UTC)


TAF: trūkstamas

Orai ataskaitas ir orų prognozės (METAR, TAF).

turimą stotys yra geltonos ir raudonos taškus žemėlapyje.

Perkelti pele per norėdami pamatyti stoties vardą.

Tada spustelėkite, norėdami matyti oro stebėjimo ir prognozės.

Norėdami pakeisti žemėlapį: spustelėkite ant žalios mygtukų su juodo kryžiaus žemyn,; žalią mygtuką su brūkšneliu, jei norite nutolinti; arba žalių rodyklių gretimoms žemėlapius.


METAR-TAF: